sensor_id;sensor_type;location;lat;lon;timestamp;P1;durP1;ratioP1;P2;durP2;ratioP2
25715;SDS011;13573;50.936;4.328;2023-06-05T00:02:06;1.87;;;1.30;;
25715;SDS011;13573;50.936;4.328;2023-06-05T00:04:33;0.43;;;0.20;;
25715;SDS011;13573;50.936;4.328;2023-06-05T00:07:02;0.80;;;0.50;;
25715;SDS011;13573;50.936;4.328;2023-06-05T00:09:28;0.30;;;0.30;;
25715;SDS011;13573;50.936;4.328;2023-06-05T00:11:55;0.60;;;0.20;;
25715;SDS011;13573;50.936;4.328;2023-06-05T00:14:21;0.10;;;0.10;;
25715;SDS011;13573;50.936;4.328;2023-06-05T00:16:48;0.10;;;0.10;;
25715;SDS011;13573;50.936;4.328;2023-06-05T00:19:17;0.10;;;0.10;;
25715;SDS011;13573;50.936;4.328;2023-06-05T00:21:44;1.00;;;0.73;;
25715;SDS011;13573;50.936;4.328;2023-06-05T00:24:10;0.17;;;0.13;;
25715;SDS011;13573;50.936;4.328;2023-06-05T00:26:37;0.27;;;0.27;;
25715;SDS011;13573;50.936;4.328;2023-06-05T00:29:03;1.73;;;1.27;;
25715;SDS011;13573;50.936;4.328;2023-06-05T00:31:30;0.73;;;0.57;;
25715;SDS011;13573;50.936;4.328;2023-06-05T00:33:58;0.10;;;0.10;;
25715;SDS011;13573;50.936;4.328;2023-06-05T00:36:24;0.40;;;0.33;;
25715;SDS011;13573;50.936;4.328;2023-06-05T00:38:53;0.37;;;0.37;;
25715;SDS011;13573;50.936;4.328;2023-06-05T00:41:20;0.73;;;0.40;;
25715;SDS011;13573;50.936;4.328;2023-06-05T00:43:46;2.67;;;1.30;;
25715;SDS011;13573;50.936;4.328;2023-06-05T00:46:13;1.97;;;0.70;;
25715;SDS011;13573;50.936;4.328;2023-06-05T00:48:41;0.30;;;0.30;;
25715;SDS011;13573;50.936;4.328;2023-06-05T00:51:09;0.10;;;0.10;;
25715;SDS011;13573;50.936;4.328;2023-06-05T00:53:38;1.40;;;1.40;;
25715;SDS011;13573;50.936;4.328;2023-06-05T00:56:05;0.97;;;0.87;;
25715;SDS011;13573;50.936;4.328;2023-06-05T00:58:32;0.20;;;0.20;;
25715;SDS011;13573;50.936;4.328;2023-06-05T01:00:59;0.10;;;0.10;;
25715;SDS011;13573;50.936;4.328;2023-06-05T01:03:29;1.17;;;0.80;;
25715;SDS011;13573;50.936;4.328;2023-06-05T01:05:59;0.00;;;0.00;;
25715;SDS011;13573;50.936;4.328;2023-06-05T01:08:28;0.10;;;0.10;;
25715;SDS011;13573;50.936;4.328;2023-06-05T01:10:56;0.20;;;0.20;;
25715;SDS011;13573;50.936;4.328;2023-06-05T01:13:26;0.20;;;0.20;;
25715;SDS011;13573;50.936;4.328;2023-06-05T01:15:56;0.97;;;0.83;;
25715;SDS011;13573;50.936;4.328;2023-06-05T01:18:23;2.10;;;1.00;;
25715;SDS011;13573;50.936;4.328;2023-06-05T01:20:50;0.50;;;0.50;;
25715;SDS011;13573;50.936;4.328;2023-06-05T01:23:17;2.33;;;1.00;;
25715;SDS011;13573;50.936;4.328;2023-06-05T01:25:43;0.63;;;0.53;;
25715;SDS011;13573;50.936;4.328;2023-06-05T01:28:13;6.33;;;1.27;;
25715;SDS011;13573;50.936;4.328;2023-06-05T01:33:31;2.47;;;0.90;;
25715;SDS011;13573;50.936;4.328;2023-06-05T01:36:02;0.13;;;0.13;;
25715;SDS011;13573;50.936;4.328;2023-06-05T01:38:32;10.10;;;1.30;;
25715;SDS011;13573;50.936;4.328;2023-06-05T01:41:00;1.67;;;1.03;;
25715;SDS011;13573;50.936;4.328;2023-06-05T01:43:29;0.43;;;0.43;;
25715;SDS011;13573;50.936;4.328;2023-06-05T01:45:58;0.60;;;0.60;;
25715;SDS011;13573;50.936;4.328;2023-06-05T01:48:26;0.97;;;0.87;;
25715;SDS011;13573;50.936;4.328;2023-06-05T01:50:55;0.70;;;0.70;;
25715;SDS011;13573;50.936;4.328;2023-06-05T01:53:22;0.53;;;0.37;;
25715;SDS011;13573;50.936;4.328;2023-06-05T01:55:49;0.10;;;0.10;;
25715;SDS011;13573;50.936;4.328;2023-06-05T01:58:18;7.53;;;1.60;;
25715;SDS011;13573;50.936;4.328;2023-06-05T02:00:47;0.10;;;0.10;;
25715;SDS011;13573;50.936;4.328;2023-06-05T02:03:14;3.60;;;1.33;;
25715;SDS011;13573;50.936;4.328;2023-06-05T02:05:41;0.70;;;0.70;;
25715;SDS011;13573;50.936;4.328;2023-06-05T02:08:08;0.20;;;0.20;;
25715;SDS011;13573;50.936;4.328;2023-06-05T02:10:36;2.07;;;1.20;;
25715;SDS011;13573;50.936;4.328;2023-06-05T02:13:06;0.10;;;0.10;;
25715;SDS011;13573;50.936;4.328;2023-06-05T02:15:32;0.40;;;0.40;;
25715;SDS011;13573;50.936;4.328;2023-06-05T02:18:00;0.40;;;0.40;;
25715;SDS011;13573;50.936;4.328;2023-06-05T02:20:28;0.20;;;0.20;;
25715;SDS011;13573;50.936;4.328;2023-06-05T02:22:55;5.80;;;2.77;;
25715;SDS011;13573;50.936;4.328;2023-06-05T02:25:22;1.77;;;0.87;;
25715;SDS011;13573;50.936;4.328;2023-06-05T02:27:53;6.10;;;5.80;;
25715;SDS011;13573;50.936;4.328;2023-06-05T02:30:19;6.23;;;5.93;;
25715;SDS011;13573;50.936;4.328;2023-06-05T02:32:46;6.10;;;5.80;;
25715;SDS011;13573;50.936;4.328;2023-06-05T02:35:14;5.97;;;5.67;;
25715;SDS011;13573;50.936;4.328;2023-06-05T02:37:41;6.50;;;6.20;;
25715;SDS011;13573;50.936;4.328;2023-06-05T02:40:10;8.03;;;7.30;;
25715;SDS011;13573;50.936;4.328;2023-06-05T02:42:38;7.30;;;6.90;;
25715;SDS011;13573;50.936;4.328;2023-06-05T02:45:06;6.70;;;6.30;;
25715;SDS011;13573;50.936;4.328;2023-06-05T02:47:33;7.57;;;6.87;;
25715;SDS011;13573;50.936;4.328;2023-06-05T02:50:00;6.47;;;6.17;;
25715;SDS011;13573;50.936;4.328;2023-06-05T02:52:29;6.50;;;6.20;;
25715;SDS011;13573;50.936;4.328;2023-06-05T02:54:58;6.33;;;6.03;;
25715;SDS011;13573;50.936;4.328;2023-06-05T02:57:25;21.50;;;6.63;;
25715;SDS011;13573;50.936;4.328;2023-06-05T02:59:52;6.37;;;5.97;;
25715;SDS011;13573;50.936;4.328;2023-06-05T03:02:21;11.40;;;6.90;;
25715;SDS011;13573;50.936;4.328;2023-06-05T03:04:48;6.70;;;6.40;;
25715;SDS011;13573;50.936;4.328;2023-06-05T03:07:17;7.13;;;6.73;;
25715;SDS011;13573;50.936;4.328;2023-06-05T03:09:43;7.13;;;6.83;;
25715;SDS011;13573;50.936;4.328;2023-06-05T03:12:10;6.80;;;6.40;;
25715;SDS011;13573;50.936;4.328;2023-06-05T03:14:36;6.17;;;5.87;;
25715;SDS011;13573;50.936;4.328;2023-06-05T03:17:03;6.83;;;6.43;;
25715;SDS011;13573;50.936;4.328;2023-06-05T03:19:30;6.07;;;5.77;;
25715;SDS011;13573;50.936;4.328;2023-06-05T03:21:57;5.10;;;4.90;;
25715;SDS011;13573;50.936;4.328;2023-06-05T03:24:23;6.23;;;5.93;;
25715;SDS011;13573;50.936;4.328;2023-06-05T03:26:50;5.37;;;5.17;;
25715;SDS011;13573;50.936;4.328;2023-06-05T03:29:17;4.97;;;4.77;;
25715;SDS011;13573;50.936;4.328;2023-06-05T03:31:43;4.43;;;4.23;;
25715;SDS011;13573;50.936;4.328;2023-06-05T03:34:10;4.30;;;4.10;;
25715;SDS011;13573;50.936;4.328;2023-06-05T03:36:37;4.77;;;4.47;;
25715;SDS011;13573;50.936;4.328;2023-06-05T03:39:05;5.53;;;5.13;;
25715;SDS011;13573;50.936;4.328;2023-06-05T03:41:32;3.80;;;3.60;;
25715;SDS011;13573;50.936;4.328;2023-06-05T03:43:59;4.20;;;4.00;;
25715;SDS011;13573;50.936;4.328;2023-06-05T03:46:26;3.93;;;3.73;;
25715;SDS011;13573;50.936;4.328;2023-06-05T03:48:55;4.10;;;3.90;;
25715;SDS011;13573;50.936;4.328;2023-06-05T03:51:24;5.63;;;4.63;;
25715;SDS011;13573;50.936;4.328;2023-06-05T03:53:54;4.33;;;4.13;;
25715;SDS011;13573;50.936;4.328;2023-06-05T03:56:20;4.77;;;4.57;;
25715;SDS011;13573;50.936;4.328;2023-06-05T03:58:48;5.30;;;5.00;;
25715;SDS011;13573;50.936;4.328;2023-06-05T04:01:15;3.50;;;3.30;;
25715;SDS011;13573;50.936;4.328;2023-06-05T04:03:42;4.90;;;4.70;;
25715;SDS011;13573;50.936;4.328;2023-06-05T04:06:08;4.50;;;4.30;;
25715;SDS011;13573;50.936;4.328;2023-06-05T04:08:36;7.43;;;6.70;;
25715;SDS011;13573;50.936;4.328;2023-06-05T04:11:03;5.40;;;5.20;;
25715;SDS011;13573;50.936;4.328;2023-06-05T04:13:30;6.50;;;6.10;;
25715;SDS011;13573;50.936;4.328;2023-06-05T04:15:56;11.30;;;5.60;;
25715;SDS011;13573;50.936;4.328;2023-06-05T04:18:23;5.17;;;4.87;;
25715;SDS011;13573;50.936;4.328;2023-06-05T04:20:50;5.37;;;5.07;;
25715;SDS011;13573;50.936;4.328;2023-06-05T04:23:16;7.53;;;4.80;;
25715;SDS011;13573;50.936;4.328;2023-06-05T04:25:43;5.10;;;4.80;;
25715;SDS011;13573;50.936;4.328;2023-06-05T04:28:11;5.70;;;5.40;;
25715;SDS011;13573;50.936;4.328;2023-06-05T04:30:38;5.27;;;4.97;;
25715;SDS011;13573;50.936;4.328;2023-06-05T04:33:05;4.60;;;4.40;;
25715;SDS011;13573;50.936;4.328;2023-06-05T04:35:31;5.27;;;4.87;;
25715;SDS011;13573;50.936;4.328;2023-06-05T04:37:59;2.90;;;2.70;;
25715;SDS011;13573;50.936;4.328;2023-06-05T04:40:26;2.90;;;2.80;;
25715;SDS011;13573;50.936;4.328;2023-06-05T04:42:53;2.80;;;2.70;;
25715;SDS011;13573;50.936;4.328;2023-06-05T04:45:20;7.27;;;3.27;;
25715;SDS011;13573;50.936;4.328;2023-06-05T04:47:47;4.60;;;3.37;;
25715;SDS011;13573;50.936;4.328;2023-06-05T04:52:50;2.03;;;1.83;;
25715;SDS011;13573;50.936;4.328;2023-06-05T04:55:18;6.90;;;2.03;;
25715;SDS011;13573;50.936;4.328;2023-06-05T04:57:46;2.53;;;2.37;;
25715;SDS011;13573;50.936;4.328;2023-06-05T05:00:14;1.30;;;1.30;;
25715;SDS011;13573;50.936;4.328;2023-06-05T05:02:41;1.00;;;1.00;;
25715;SDS011;13573;50.936;4.328;2023-06-05T05:05:08;1.60;;;1.50;;
25715;SDS011;13573;50.936;4.328;2023-06-05T05:07:37;1.73;;;1.63;;
25715;SDS011;13573;50.936;4.328;2023-06-05T05:10:04;2.03;;;1.83;;
25715;SDS011;13573;50.936;4.328;2023-06-05T05:12:31;1.90;;;1.80;;
25715;SDS011;13573;50.936;4.328;2023-06-05T05:14:58;1.20;;;1.20;;
25715;SDS011;13573;50.936;4.328;2023-06-05T05:17:25;1.57;;;1.47;;
25715;SDS011;13573;50.936;4.328;2023-06-05T05:19:51;3.03;;;1.70;;
25715;SDS011;13573;50.936;4.328;2023-06-05T05:22:18;1.77;;;1.53;;
25715;SDS011;13573;50.936;4.328;2023-06-05T05:24:45;4.30;;;1.50;;
25715;SDS011;13573;50.936;4.328;2023-06-05T05:27:11;1.70;;;1.60;;
25715;SDS011;13573;50.936;4.328;2023-06-05T05:29:38;7.80;;;3.70;;
25715;SDS011;13573;50.936;4.328;2023-06-05T05:32:04;0.87;;;0.87;;
25715;SDS011;13573;50.936;4.328;2023-06-05T05:34:31;1.80;;;1.23;;
25715;SDS011;13573;50.936;4.328;2023-06-05T05:36:59;6.00;;;5.23;;
25715;SDS011;13573;50.936;4.328;2023-06-05T05:39:27;1.77;;;1.70;;
25715;SDS011;13573;50.936;4.328;2023-06-05T05:41:53;3.17;;;2.20;;
25715;SDS011;13573;50.936;4.328;2023-06-05T05:44:20;0.90;;;0.90;;
25715;SDS011;13573;50.936;4.328;2023-06-05T05:46:47;1.50;;;1.40;;
25715;SDS011;13573;50.936;4.328;2023-06-05T05:49:14;4.33;;;1.80;;
25715;SDS011;13573;50.936;4.328;2023-06-05T05:51:40;1.40;;;1.40;;
25715;SDS011;13573;50.936;4.328;2023-06-05T05:54:07;1.23;;;1.23;;
25715;SDS011;13573;50.936;4.328;2023-06-05T05:56:33;11.77;;;2.57;;
25715;SDS011;13573;50.936;4.328;2023-06-05T05:59:02;2.47;;;2.27;;
25715;SDS011;13573;50.936;4.328;2023-06-05T06:01:29;6.20;;;2.30;;
25715;SDS011;13573;50.936;4.328;2023-06-05T06:03:57;7.40;;;4.03;;
25715;SDS011;13573;50.936;4.328;2023-06-05T06:06:24;2.20;;;1.93;;
25715;SDS011;13573;50.936;4.328;2023-06-05T06:08:51;2.23;;;2.13;;
25715;SDS011;13573;50.936;4.328;2023-06-05T06:11:18;2.93;;;2.63;;
25715;SDS011;13573;50.936;4.328;2023-06-05T06:13:45;0.97;;;0.97;;
25715;SDS011;13573;50.936;4.328;2023-06-05T06:16:12;1.80;;;1.07;;
25715;SDS011;13573;50.936;4.328;2023-06-05T06:18:38;2.67;;;0.20;;
25715;SDS011;13573;50.936;4.328;2023-06-05T06:21:05;0.60;;;0.50;;
25715;SDS011;13573;50.936;4.328;2023-06-05T06:23:32;0.20;;;0.20;;
25715;SDS011;13573;50.936;4.328;2023-06-05T06:25:59;1.93;;;1.83;;
25715;SDS011;13573;50.936;4.328;2023-06-05T06:28:26;21.23;;;3.50;;
25715;SDS011;13573;50.936;4.328;2023-06-05T06:30:53;2.80;;;2.60;;
25715;SDS011;13573;50.936;4.328;2023-06-05T06:33:20;1.50;;;1.50;;
25715;SDS011;13573;50.936;4.328;2023-06-05T06:35:48;2.43;;;1.13;;
25715;SDS011;13573;50.936;4.328;2023-06-05T06:38:15;2.13;;;0.80;;
25715;SDS011;13573;50.936;4.328;2023-06-05T06:40:42;0.20;;;0.20;;
25715;SDS011;13573;50.936;4.328;2023-06-05T06:43:08;2.23;;;1.13;;
25715;SDS011;13573;50.936;4.328;2023-06-05T06:45:35;1.63;;;1.10;;
25715;SDS011;13573;50.936;4.328;2023-06-05T06:48:01;0.57;;;0.57;;
25715;SDS011;13573;50.936;4.328;2023-06-05T06:50:28;2.00;;;0.83;;
25715;SDS011;13573;50.936;4.328;2023-06-05T06:52:55;0.60;;;0.40;;
25715;SDS011;13573;50.936;4.328;2023-06-05T06:55:21;0.57;;;0.43;;
25715;SDS011;13573;50.936;4.328;2023-06-05T06:57:48;2.90;;;1.53;;
25715;SDS011;13573;50.936;4.328;2023-06-05T07:00:15;2.10;;;1.27;;
25715;SDS011;13573;50.936;4.328;2023-06-05T07:02:42;0.63;;;0.60;;
25715;SDS011;13573;50.936;4.328;2023-06-05T07:05:10;2.67;;;2.57;;
25715;SDS011;13573;50.936;4.328;2023-06-05T07:07:37;3.90;;;3.60;;
25715;SDS011;13573;50.936;4.328;2023-06-05T07:10:04;4.20;;;3.90;;
25715;SDS011;13573;50.936;4.328;2023-06-05T07:12:31;3.53;;;3.23;;
25715;SDS011;13573;50.936;4.328;2023-06-05T07:14:58;6.93;;;5.70;;
25715;SDS011;13573;50.936;4.328;2023-06-05T07:17:24;3.60;;;3.40;;
25715;SDS011;13573;50.936;4.328;2023-06-05T07:19:53;4.17;;;3.87;;
25715;SDS011;13573;50.936;4.328;2023-06-05T07:22:19;11.30;;;4.27;;
25715;SDS011;13573;50.936;4.328;2023-06-05T07:24:46;6.87;;;4.07;;
25715;SDS011;13573;50.936;4.328;2023-06-05T07:27:14;4.60;;;4.30;;
25715;SDS011;13573;50.936;4.328;2023-06-05T07:29:41;4.23;;;4.00;;
25715;SDS011;13573;50.936;4.328;2023-06-05T07:32:08;4.40;;;4.10;;
25715;SDS011;13573;50.936;4.328;2023-06-05T07:34:35;2.58;;;1.02;;
25715;SDS011;13573;50.936;4.328;2023-06-05T07:37:02;0.55;;;0.55;;
25715;SDS011;13573;50.936;4.328;2023-06-05T07:39:29;1.03;;;0.50;;
25715;SDS011;13573;50.936;4.328;2023-06-05T07:41:56;2.80;;;1.40;;
25715;SDS011;13573;50.936;4.328;2023-06-05T07:44:22;4.75;;;1.27;;
25715;SDS011;13573;50.936;4.328;2023-06-05T07:46:49;2.25;;;1.35;;
25715;SDS011;13573;50.936;4.328;2023-06-05T07:49:17;14.55;;;2.80;;
25715;SDS011;13573;50.936;4.328;2023-06-05T07:51:45;3.17;;;1.37;;
25715;SDS011;13573;50.936;4.328;2023-06-05T07:54:15;0.42;;;0.42;;
25715;SDS011;13573;50.936;4.328;2023-06-05T07:56:42;1.00;;;0.53;;
25715;SDS011;13573;50.936;4.328;2023-06-05T07:59:09;0.30;;;0.30;;
25715;SDS011;13573;50.936;4.328;2023-06-05T08:01:38;2.17;;;0.80;;
25715;SDS011;13573;50.936;4.328;2023-06-05T08:04:05;0.40;;;0.40;;
25715;SDS011;13573;50.936;4.328;2023-06-05T08:06:33;5.10;;;0.93;;
25715;SDS011;13573;50.936;4.328;2023-06-05T08:09:03;2.10;;;1.05;;
25715;SDS011;13573;50.936;4.328;2023-06-05T08:11:31;6.15;;;1.80;;
25715;SDS011;13573;50.936;4.328;2023-06-05T08:13:58;5.15;;;1.22;;
25715;SDS011;13573;50.936;4.328;2023-06-05T08:16:25;0.65;;;0.45;;
25715;SDS011;13573;50.936;4.328;2023-06-05T08:18:51;0.10;;;0.10;;
25715;SDS011;13573;50.936;4.328;2023-06-05T08:21:18;8.23;;;0.53;;
25715;SDS011;13573;50.936;4.328;2023-06-05T08:23:45;4.78;;;1.15;;
25715;SDS011;13573;50.936;4.328;2023-06-05T08:26:12;0.85;;;0.62;;
25715;SDS011;13573;50.936;4.328;2023-06-05T08:28:39;2.25;;;1.40;;
25715;SDS011;13573;50.936;4.328;2023-06-05T08:31:07;1.20;;;0.80;;
25715;SDS011;13573;50.936;4.328;2023-06-05T08:33:36;2.05;;;0.65;;
25715;SDS011;13573;50.936;4.328;2023-06-05T08:36:03;1.87;;;1.52;;
25715;SDS011;13573;50.936;4.328;2023-06-05T08:38:31;0.95;;;0.57;;
25715;SDS011;13573;50.936;4.328;2023-06-05T08:41:02;10.08;;;1.10;;
25715;SDS011;13573;50.936;4.328;2023-06-05T08:43:37;2.05;;;1.57;;
25715;SDS011;13573;50.936;4.328;2023-06-05T08:46:04;2.72;;;1.65;;
25715;SDS011;13573;50.936;4.328;2023-06-05T08:48:32;6.22;;;2.08;;
25715;SDS011;13573;50.936;4.328;2023-06-05T08:51:01;2.42;;;1.85;;
25715;SDS011;13573;50.936;4.328;2023-06-05T08:53:28;1.25;;;0.95;;
25715;SDS011;13573;50.936;4.328;2023-06-05T08:55:59;1.47;;;0.90;;
25715;SDS011;13573;50.936;4.328;2023-06-05T08:58:28;3.10;;;1.42;;
25715;SDS011;13573;50.936;4.328;2023-06-05T09:00:55;5.30;;;4.85;;
25715;SDS011;13573;50.936;4.328;2023-06-05T09:03:22;7.35;;;6.95;;
25715;SDS011;13573;50.936;4.328;2023-06-05T09:05:51;8.03;;;7.53;;
25715;SDS011;13573;50.936;4.328;2023-06-05T09:08:27;9.90;;;9.30;;
25715;SDS011;13573;50.936;4.328;2023-06-05T09:16:11;5.28;;;5.08;;
25715;SDS011;13573;50.936;4.328;2023-06-05T09:21:16;5.40;;;5.10;;
25715;SDS011;13573;50.936;4.328;2023-06-05T09:23:43;5.40;;;5.10;;
25715;SDS011;13573;50.936;4.328;2023-06-05T09:26:10;5.30;;;5.00;;
25715;SDS011;13573;50.936;4.328;2023-06-05T09:31:17;4.65;;;1.27;;
25715;SDS011;13573;50.936;4.328;2023-06-05T09:33:45;0.72;;;0.42;;
25715;SDS011;13573;50.936;4.328;2023-06-05T09:36:18;3.10;;;1.55;;
25715;SDS011;13573;50.936;4.328;2023-06-05T09:38:45;0.88;;;0.88;;
25715;SDS011;13573;50.936;4.328;2023-06-05T09:41:13;16.52;;;1.90;;
25715;SDS011;13573;50.936;4.328;2023-06-05T09:43:40;0.75;;;0.57;;
25715;SDS011;13573;50.936;4.328;2023-06-05T09:46:07;2.20;;;1.37;;
25715;SDS011;13573;50.936;4.328;2023-06-05T09:48:37;2.02;;;1.37;;
25715;SDS011;13573;50.936;4.328;2023-06-05T09:51:20;1.35;;;0.78;;
25715;SDS011;13573;50.936;4.328;2023-06-05T09:53:48;3.83;;;1.57;;
25715;SDS011;13573;50.936;4.328;2023-06-05T09:56:16;1.95;;;0.75;;
25715;SDS011;13573;50.936;4.328;2023-06-05T09:58:45;2.50;;;0.85;;
25715;SDS011;13573;50.936;4.328;2023-06-05T10:01:15;5.30;;;4.92;;
25715;SDS011;13573;50.936;4.328;2023-06-05T10:03:44;6.08;;;5.67;;
25715;SDS011;13573;50.936;4.328;2023-06-05T10:06:14;5.40;;;5.10;;
25715;SDS011;13573;50.936;4.328;2023-06-05T10:08:44;5.58;;;5.17;;
25715;SDS011;13573;50.936;4.328;2023-06-05T10:11:14;5.20;;;4.70;;
25715;SDS011;13573;50.936;4.328;2023-06-05T10:13:42;8.13;;;5.08;;
25715;SDS011;13573;50.936;4.328;2023-06-05T10:16:09;5.65;;;5.35;;
25715;SDS011;13573;50.936;4.328;2023-06-05T10:18:36;6.20;;;5.70;;
25715;SDS011;13573;50.936;4.328;2023-06-05T10:21:02;6.55;;;6.15;;
25715;SDS011;13573;50.936;4.328;2023-06-05T10:23:30;1.20;;;0.75;;
25715;SDS011;13573;50.936;4.328;2023-06-05T10:25:58;1.62;;;0.93;;
25715;SDS011;13573;50.936;4.328;2023-06-05T10:28:37;14.05;;;0.95;;
25715;SDS011;13573;50.936;4.328;2023-06-05T10:31:19;1.40;;;1.10;;
25715;SDS011;13573;50.936;4.328;2023-06-05T10:34:02;1.87;;;0.75;;
25715;SDS011;13573;50.936;4.328;2023-06-05T10:36:43;3.80;;;1.92;;
25715;SDS011;13573;50.936;4.328;2023-06-05T10:39:10;5.70;;;5.40;;
25715;SDS011;13573;50.936;4.328;2023-06-05T10:41:38;13.00;;;1.52;;
25715;SDS011;13573;50.936;4.328;2023-06-05T10:44:05;1.45;;;0.42;;
25715;SDS011;13573;50.936;4.328;2023-06-05T10:46:32;10.90;;;1.82;;
25715;SDS011;13573;50.936;4.328;2023-06-05T10:49:07;0.85;;;0.35;;
25715;SDS011;13573;50.936;4.328;2023-06-05T10:51:40;2.72;;;1.35;;
25715;SDS011;13573;50.936;4.328;2023-06-05T10:54:13;0.90;;;0.90;;
25715;SDS011;13573;50.936;4.328;2023-06-05T10:59:28;0.78;;;0.55;;
25715;SDS011;13573;50.936;4.328;2023-06-05T11:05:03;1.07;;;0.65;;
25715;SDS011;13573;50.936;4.328;2023-06-05T11:07:30;6.37;;;1.37;;
25715;SDS011;13573;50.936;4.328;2023-06-05T11:10:06;0.60;;;0.35;;
25715;SDS011;13573;50.936;4.328;2023-06-05T11:15:38;1.22;;;1.12;;
25715;SDS011;13573;50.936;4.328;2023-06-05T11:18:39;0.65;;;0.57;;
25715;SDS011;13573;50.936;4.328;2023-06-05T11:20:52;0.98;;;0.75;;
25715;SDS011;13573;50.936;4.328;2023-06-05T11:23:19;0.78;;;0.42;;
25715;SDS011;13573;50.936;4.328;2023-06-05T11:25:47;0.42;;;0.40;;
25715;SDS011;13573;50.936;4.328;2023-06-05T11:28:36;0.60;;;0.57;;
25715;SDS011;13573;50.936;4.328;2023-06-05T11:31:01;2.05;;;1.45;;
25715;SDS011;13573;50.936;4.328;2023-06-05T11:33:28;1.40;;;0.82;;
25715;SDS011;13573;50.936;4.328;2023-06-05T11:35:59;0.20;;;0.20;;
25715;SDS011;13573;50.936;4.328;2023-06-05T11:38:26;1.15;;;0.65;;
25715;SDS011;13573;50.936;4.328;2023-06-05T11:40:53;2.70;;;1.45;;
25715;SDS011;13573;50.936;4.328;2023-06-05T11:43:20;3.00;;;1.20;;
25715;SDS011;13573;50.936;4.328;2023-06-05T11:45:49;1.32;;;0.75;;
25715;SDS011;13573;50.936;4.328;2023-06-05T11:48:18;0.80;;;0.57;;
25715;SDS011;13573;50.936;4.328;2023-06-05T11:53:20;2.77;;;0.62;;
25715;SDS011;13573;50.936;4.328;2023-06-05T11:55:47;0.85;;;0.78;;
25715;SDS011;13573;50.936;4.328;2023-06-05T11:58:33;21.70;;;0.95;;
25715;SDS011;13573;50.936;4.328;2023-06-05T12:01:04;0.70;;;0.70;;
25715;SDS011;13573;50.936;4.328;2023-06-05T12:03:36;14.35;;;5.95;;
25715;SDS011;13573;50.936;4.328;2023-06-05T12:06:04;4.60;;;4.40;;
25715;SDS011;13573;50.936;4.328;2023-06-05T12:08:32;4.70;;;4.50;;
25715;SDS011;13573;50.936;4.328;2023-06-05T12:11:01;4.97;;;4.67;;
25715;SDS011;13573;50.936;4.328;2023-06-05T12:16:08;8.00;;;5.95;;
25715;SDS011;13573;50.936;4.328;2023-06-05T12:18:34;32.58;;;4.50;;
25715;SDS011;13573;50.936;4.328;2023-06-05T12:21:01;3.70;;;3.50;;
25715;SDS011;13573;50.936;4.328;2023-06-05T12:23:28;4.92;;;4.47;;
25715;SDS011;13573;50.936;4.328;2023-06-05T12:25:59;6.05;;;5.55;;
25715;SDS011;13573;50.936;4.328;2023-06-05T12:28:28;5.12;;;4.72;;
25715;SDS011;13573;50.936;4.328;2023-06-05T12:30:55;4.78;;;4.37;;
25715;SDS011;13573;50.936;4.328;2023-06-05T12:33:22;4.00;;;3.80;;
25715;SDS011;13573;50.936;4.328;2023-06-05T12:36:06;9.78;;;4.35;;
25715;SDS011;13573;50.936;4.328;2023-06-05T12:38:36;3.75;;;3.45;;
25715;SDS011;13573;50.936;4.328;2023-06-05T12:41:04;5.08;;;4.08;;
25715;SDS011;13573;50.936;4.328;2023-06-05T12:43:33;7.55;;;4.60;;
25715;SDS011;13573;50.936;4.328;2023-06-05T12:46:00;3.77;;;3.58;;
25715;SDS011;13573;50.936;4.328;2023-06-05T12:48:27;4.28;;;3.83;;
25715;SDS011;13573;50.936;4.328;2023-06-05T12:50:54;19.85;;;2.20;;
25715;SDS011;13573;50.936;4.328;2023-06-05T12:53:22;1.82;;;0.75;;
25715;SDS011;13573;50.936;4.328;2023-06-05T12:55:48;0.50;;;0.50;;
25715;SDS011;13573;50.936;4.328;2023-06-05T12:58:15;0.10;;;0.10;;
25715;SDS011;13573;50.936;4.328;2023-06-05T13:00:42;5.90;;;1.15;;
25715;SDS011;13573;50.936;4.328;2023-06-05T13:03:09;10.03;;;1.07;;
25715;SDS011;13573;50.936;4.328;2023-06-05T13:05:38;0.75;;;0.75;;
25715;SDS011;13573;50.936;4.328;2023-06-05T13:08:05;2.55;;;1.17;;
25715;SDS011;13573;50.936;4.328;2023-06-05T13:10:32;1.12;;;0.72;;
25715;SDS011;13573;50.936;4.328;2023-06-05T13:12:58;2.62;;;1.12;;
25715;SDS011;13573;50.936;4.328;2023-06-05T13:15:25;4.97;;;0.78;;
25715;SDS011;13573;50.936;4.328;2023-06-05T13:17:51;2.75;;;1.07;;
25715;SDS011;13573;50.936;4.328;2023-06-05T13:20:18;1.55;;;0.70;;
25715;SDS011;13573;50.936;4.328;2023-06-05T13:22:45;0.35;;;0.28;;
25715;SDS011;13573;50.936;4.328;2023-06-05T13:25:11;4.37;;;1.27;;
25715;SDS011;13573;50.936;4.328;2023-06-05T13:27:38;1.70;;;0.70;;
25715;SDS011;13573;50.936;4.328;2023-06-05T13:30:05;7.85;;;1.37;;
25715;SDS011;13573;50.936;4.328;2023-06-05T13:32:32;0.30;;;0.30;;
25715;SDS011;13573;50.936;4.328;2023-06-05T13:35:00;1.47;;;0.42;;
25715;SDS011;13573;50.936;4.328;2023-06-05T13:37:27;1.17;;;0.82;;
25715;SDS011;13573;50.936;4.328;2023-06-05T13:39:53;0.53;;;0.42;;
25715;SDS011;13573;50.936;4.328;2023-06-05T13:42:20;0.33;;;0.33;;
25715;SDS011;13573;50.936;4.328;2023-06-05T13:44:46;0.25;;;0.25;;
25715;SDS011;13573;50.936;4.328;2023-06-05T13:47:14;3.80;;;1.10;;
25715;SDS011;13573;50.936;4.328;2023-06-05T13:49:41;0.20;;;0.20;;
25715;SDS011;13573;50.936;4.328;2023-06-05T13:52:07;7.47;;;0.78;;
25715;SDS011;13573;50.936;4.328;2023-06-05T13:54:34;2.35;;;1.30;;
25715;SDS011;13573;50.936;4.328;2023-06-05T13:57:00;1.12;;;0.70;;
25715;SDS011;13573;50.936;4.328;2023-06-05T13:59:28;0.30;;;0.30;;
25715;SDS011;13573;50.936;4.328;2023-06-05T14:01:55;0.78;;;0.70;;
25715;SDS011;13573;50.936;4.328;2023-06-05T14:04:21;1.85;;;1.27;;
25715;SDS011;13573;50.936;4.328;2023-06-05T14:06:48;1.00;;;0.80;;
25715;SDS011;13573;50.936;4.328;2023-06-05T14:09:15;0.25;;;0.25;;
25715;SDS011;13573;50.936;4.328;2023-06-05T14:11:42;0.72;;;0.45;;
25715;SDS011;13573;50.936;4.328;2023-06-05T14:14:10;0.88;;;0.70;;
25715;SDS011;13573;50.936;4.328;2023-06-05T14:16:36;0.37;;;0.30;;
25715;SDS011;13573;50.936;4.328;2023-06-05T14:19:03;1.00;;;0.42;;
25715;SDS011;13573;50.936;4.328;2023-06-05T14:21:30;1.55;;;0.85;;
25715;SDS011;13573;50.936;4.328;2023-06-05T14:23:56;0.60;;;0.45;;
25715;SDS011;13573;50.936;4.328;2023-06-05T14:26:23;2.98;;;1.80;;
25715;SDS011;13573;50.936;4.328;2023-06-05T14:28:51;1.75;;;0.95;;
25715;SDS011;13573;50.936;4.328;2023-06-05T14:31:17;1.50;;;1.02;;
25715;SDS011;13573;50.936;4.328;2023-06-05T14:33:44;7.25;;;6.60;;
25715;SDS011;13573;50.936;4.328;2023-06-05T14:36:11;4.85;;;4.55;;
25715;SDS011;13573;50.936;4.328;2023-06-05T14:38:37;4.92;;;4.53;;
25715;SDS011;13573;50.936;4.328;2023-06-05T14:41:04;4.03;;;3.83;;
25715;SDS011;13573;50.936;4.328;2023-06-05T14:43:30;5.20;;;4.42;;
25715;SDS011;13573;50.936;4.328;2023-06-05T14:45:57;3.00;;;2.80;;
25715;SDS011;13573;50.936;4.328;2023-06-05T14:48:25;3.15;;;2.92;;
25715;SDS011;13573;50.936;4.328;2023-06-05T14:50:52;2.50;;;2.37;;
25715;SDS011;13573;50.936;4.328;2023-06-05T14:53:19;2.00;;;1.90;;
25715;SDS011;13573;50.936;4.328;2023-06-05T14:55:45;4.53;;;2.55;;
25715;SDS011;13573;50.936;4.328;2023-06-05T14:58:12;3.50;;;2.92;;
25715;SDS011;13573;50.936;4.328;2023-06-05T15:00:39;6.30;;;6.00;;
25715;SDS011;13573;50.936;4.328;2023-06-05T15:03:06;7.53;;;6.67;;
25715;SDS011;13573;50.936;4.328;2023-06-05T15:05:33;5.72;;;5.42;;
25715;SDS011;13573;50.936;4.328;2023-06-05T15:07:59;20.35;;;7.15;;
25715;SDS011;13573;50.936;4.328;2023-06-05T15:10:26;6.20;;;5.90;;
25715;SDS011;13573;50.936;4.328;2023-06-05T15:12:53;6.10;;;5.80;;
25715;SDS011;13573;50.936;4.328;2023-06-05T15:15:23;6.08;;;5.78;;
25715;SDS011;13573;50.936;4.328;2023-06-05T15:17:50;9.28;;;6.33;;
25715;SDS011;13573;50.936;4.328;2023-06-05T15:20:18;7.12;;;6.60;;
25715;SDS011;13573;50.936;4.328;2023-06-05T15:22:45;7.28;;;6.78;;